Time;durP1;ratioP1;P1;durP2;ratioP2;P2;SDS_P1;SDS_P2;PMS_P1;PMS_P2;Temp;Humidity;BMP_temperature;BMP_pressure;BME280_temperature;BME280_humidity;BME280_pressure;Samples;Min_cycle;Max_cycle;Signal;HPM_P1;HPM_P2
2023/09/01 00:02:21;;;;;;;4.90;3.00;;;13.40;99.90;;;;;;5052752;28;20205;-84
2023/09/01 00:04:47;;;;;;;3.40;2.33;;;13.40;99.90;;;;;;5051846;28;20209;-84
2023/09/01 00:07:12;;;;;;;4.50;2.43;;;13.40;99.90;;;;;;5053020;28;20232;-84
2023/09/01 00:09:38;;;;;;;4.97;2.60;;;13.40;99.90;;;;;;5051133;28;20178;-82
2023/09/01 00:12:04;;;;;;;3.53;2.70;;;13.40;99.90;;;;;;5051188;28;20182;-84
2023/09/01 00:14:29;;;;;;;3.40;2.43;;;13.50;99.90;;;;;;5051780;28;20196;-84
2023/09/01 00:16:55;;;;;;;6.50;2.60;;;13.50;99.90;;;;;;5052940;28;20173;-84
2023/09/01 00:19:23;;;;;;;4.47;2.70;;;13.50;99.90;;;;;;5051644;28;20215;-84
2023/09/01 00:21:49;;;;;;;5.57;2.50;;;13.50;99.90;;;;;;5050530;28;20201;-84
2023/09/01 00:24:15;;;;;;;7.07;2.40;;;13.40;99.90;;;;;;5052167;28;20283;-84
2023/09/01 00:26:41;;;;;;;5.43;2.50;;;13.40;99.90;;;;;;5052107;28;20189;-84
2023/09/01 00:29:06;;;;;;;4.43;2.70;;;13.50;99.90;;;;;;5051626;28;20177;-84
2023/09/01 00:31:33;;;;;;;5.90;2.57;;;13.50;99.90;;;;;;5050557;28;20176;-84
2023/09/01 00:33:59;;;;;;;4.03;2.40;;;13.60;99.90;;;;;;5052392;28;20695;-84
2023/09/01 00:36:24;;;;;;;4.30;2.30;;;13.60;99.90;;;;;;5051610;28;20238;-84
2023/09/01 00:38:50;;;;;;;5.13;2.70;;;13.60;99.90;;;;;;5051172;28;20181;-84
2023/09/01 00:41:15;;;;;;;5.13;2.60;;;13.70;99.90;;;;;;5050377;28;20640;-84
2023/09/01 00:43:41;;;;;;;4.70;2.70;;;13.70;99.90;;;;;;5052506;28;20779;-84
2023/09/01 00:46:07;;;;;;;4.90;2.67;;;13.70;99.90;;;;;;5052586;28;20192;-84
2023/09/01 00:48:33;;;;;;;6.27;2.40;;;13.60;99.90;;;;;;5051384;28;20169;-84
2023/09/01 00:50:58;;;;;;;4.70;2.50;;;13.50;99.90;;;;;;5050623;28;20667;-84
2023/09/01 00:53:25;;;;;;;3.03;2.60;;;13.50;99.90;;;;;;5051050;28;20255;-84
2023/09/01 00:55:52;;;;;;;3.73;2.50;;;13.50;99.90;;;;;;5051327;28;20173;-84
2023/09/01 00:58:18;;;;;;;4.27;2.73;;;13.60;99.90;;;;;;5052463;28;20169;-84
2023/09/01 01:00:44;;;;;;;6.03;2.50;;;13.60;99.90;;;;;;5050738;28;20262;-84
2023/09/01 01:03:11;;;;;;;4.50;2.50;;;13.60;99.90;;;;;;5051977;28;20233;-84
2023/09/01 01:06:11;;;;;;;5.10;2.63;;;13.60;99.90;;;;;;5052359;28;20640;-84
2023/09/01 01:09:08;;;;;;;3.40;2.53;;;13.60;99.90;;;;;;5050871;28;20174;-84
2023/09/01 01:11:40;;;;;;;4.03;2.57;;;13.60;99.90;;;;;;5051590;28;20252;-84
2023/09/01 01:14:11;;;;;;;5.20;2.70;;;13.70;99.90;;;;;;5050718;28;20221;-84
2023/09/01 01:16:37;;;;;;;3.27;2.30;;;13.80;99.90;;;;;;5052352;28;20216;-84
2023/09/01 01:19:16;;;;;;;4.53;2.40;;;13.90;99.90;;;;;;5051052;28;20223;-84
2023/09/01 01:21:44;;;;;;;3.60;2.50;;;13.90;99.90;;;;;;5031862;28;20166;-84
2023/09/01 01:24:10;;;;;;;4.27;2.40;;;13.90;99.90;;;;;;5032244;28;20241;-84
2023/09/01 01:26:36;;;;;;;4.53;2.53;;;13.90;99.90;;;;;;5031092;28;20211;-84
2023/09/01 01:29:01;;;;;;;5.37;3.03;;;13.90;99.90;;;;;;5032063;28;20274;-84
2023/09/01 01:31:27;;;;;;;3.40;2.30;;;13.90;99.90;;;;;;5050500;28;20186;-84
2023/09/01 01:33:58;;;;;;;4.03;2.40;;;13.90;99.90;;;;;;5050639;28;20213;-84
2023/09/01 01:36:50;;;;;;;4.37;2.60;;;13.90;99.90;;;;;;5050993;28;20162;-84
2023/09/01 01:39:20;;;;;;;6.37;2.60;;;13.90;99.90;;;;;;5052071;28;20218;-83
2023/09/01 01:42:02;;;;;;;4.33;2.40;;;13.90;99.90;;;;;;5054585;28;20678;-84
2023/09/01 01:44:32;;;;;;;4.33;2.57;;;13.90;99.90;;;;;;5054613;28;20250;-84
2023/09/01 01:46:59;;;;;;;4.23;2.40;;;13.90;99.90;;;;;;5054342;28;20170;-84
2023/09/01 01:49:27;;;;;;;4.43;2.60;;;14.00;99.90;;;;;;5054284;28;20264;-84
2023/09/01 01:51:53;;;;;;;7.27;2.60;;;14.00;99.90;;;;;;5053497;28;20323;-83
2023/09/01 01:54:18;;;;;;;3.43;2.60;;;14.00;99.90;;;;;;5054103;28;20258;-84
2023/09/01 01:56:44;;;;;;;3.57;2.43;;;14.00;99.90;;;;;;5054064;28;20177;-84
2023/09/01 01:59:09;;;;;;;3.80;2.53;;;14.00;99.90;;;;;;5054121;28;20178;-83
2023/09/01 02:01:35;;;;;;;4.23;2.80;;;14.00;99.90;;;;;;5053534;28;20312;-84
2023/09/01 02:04:00;;;;;;;4.23;2.70;;;14.00;99.90;;;;;;5054146;28;20206;-84
2023/09/01 02:06:26;;;;;;;4.60;2.77;;;14.00;99.90;;;;;;5053909;28;20162;-84
2023/09/01 02:08:51;;;;;;;4.63;2.73;;;14.00;99.90;;;;;;5053867;28;20264;-84
2023/09/01 02:11:17;;;;;;;3.30;2.43;;;14.00;99.90;;;;;;5054684;28;20185;-84
2023/09/01 02:13:42;;;;;;;4.73;2.47;;;14.00;99.90;;;;;;5053697;28;20190;-84
2023/09/01 02:16:08;;;;;;;5.67;2.63;;;14.00;99.90;;;;;;5053791;28;20184;-84
2023/09/01 02:18:34;;;;;;;4.77;2.70;;;14.00;99.90;;;;;;5053699;28;20205;-83
2023/09/01 02:21:00;;;;;;;3.57;2.90;;;13.90;99.90;;;;;;5051190;28;20204;-83
2023/09/01 02:23:26;;;;;;;4.50;2.90;;;13.80;99.90;;;;;;5053526;28;20251;-84
2023/09/01 02:25:51;;;;;;;4.90;2.90;;;13.80;99.90;;;;;;5055053;28;20178;-83
2023/09/01 02:28:17;;;;;;;4.03;2.93;;;13.80;99.90;;;;;;5054759;28;20205;-84
2023/09/01 02:30:43;;;;;;;6.07;3.20;;;13.80;99.90;;;;;;5052301;28;20182;-84
2023/09/01 02:33:09;;;;;;;4.70;3.50;;;13.70;99.90;;;;;;5054211;28;20213;-83
2023/09/01 02:35:44;;;;;;;5.67;2.97;;;13.80;99.90;;;;;;5053681;28;20196;-83
2023/09/01 02:38:13;;;;;;;5.30;2.80;;;13.80;99.90;;;;;;5053555;28;20170;-83
2023/09/01 02:40:40;;;;;;;4.87;3.00;;;13.80;99.90;;;;;;5053874;28;20182;-84
2023/09/01 02:43:05;;;;;;;3.30;2.50;;;13.90;99.90;;;;;;5049277;28;20210;-83
2023/09/01 02:45:31;;;;;;;4.40;2.87;;;13.90;99.90;;;;;;5054566;28;20180;-84
2023/09/01 02:47:59;;;;;;;5.80;2.90;;;13.90;99.90;;;;;;5053493;28;20187;-84
2023/09/01 02:50:25;;;;;;;6.10;3.30;;;14.00;99.90;;;;;;5042478;28;20183;-83
2023/09/01 02:52:51;;;;;;;4.03;2.80;;;14.00;99.90;;;;;;5033255;28;20680;-83
2023/09/01 02:55:17;;;;;;;4.90;2.50;;;14.00;99.90;;;;;;5034493;28;20174;-83
2023/09/01 02:57:44;;;;;;;4.93;2.73;;;13.90;99.90;;;;;;5034477;28;20201;-84
2023/09/01 03:00:21;;;;;;;4.10;3.13;;;14.00;99.90;;;;;;5042499;28;20261;-83
2023/09/01 03:02:48;;;;;;;4.83;3.10;;;14.00;99.90;;;;;;5054200;28;20186;-84
2023/09/01 03:05:13;;;;;;;4.90;2.97;;;14.00;99.90;;;;;;5053142;28;20636;-83
2023/09/01 03:07:39;;;;;;;3.83;2.50;;;14.00;99.90;;;;;;5052843;28;20205;-84
2023/09/01 03:10:07;;;;;;;4.07;2.80;;;14.00;99.90;;;;;;5053532;28;20550;-83
2023/09/01 03:12:34;;;;;;;4.43;2.53;;;14.00;99.90;;;;;;5052919;28;20185;-83
2023/09/01 03:15:00;;;;;;;4.50;2.60;;;14.00;99.90;;;;;;5054082;28;20235;-83
2023/09/01 03:17:25;;;;;;;5.13;2.73;;;14.00;99.90;;;;;;5052533;28;20268;-83
2023/09/01 03:19:51;;;;;;;3.83;2.57;;;14.00;99.90;;;;;;5051861;28;20169;-84
2023/09/01 03:22:16;;;;;;;6.87;2.83;;;14.00;99.90;;;;;;5052737;28;20184;-84
2023/09/01 03:24:42;;;;;;;2.43;2.10;;;14.00;99.90;;;;;;5054085;28;20197;-83
2023/09/01 03:27:07;;;;;;;4.70;2.60;;;14.00;99.90;;;;;;5054065;28;20166;-83
2023/09/01 03:29:33;;;;;;;3.00;2.40;;;14.10;99.90;;;;;;5052611;28;20170;-83
2023/09/01 03:31:58;;;;;;;5.73;2.43;;;14.20;99.90;;;;;;5053298;28;20177;-83
2023/09/01 03:34:24;;;;;;;3.13;2.37;;;14.20;99.90;;;;;;5079514;22;20249;-85
2023/09/01 03:36:50;;;;;;;4.33;2.67;;;14.20;99.90;;;;;;5072272;28;20169;-82
2023/09/01 03:39:18;;;;;;;3.70;2.50;;;14.20;99.90;;;;;;5072703;28;20187;-85
2023/09/01 03:41:43;;;;;;;5.70;3.10;;;14.20;99.90;;;;;;5063699;28;20161;-85
2023/09/01 03:44:09;;;;;;;3.80;2.50;;;14.20;99.90;;;;;;5071740;28;20288;-85
2023/09/01 03:46:35;;;;;;;4.13;2.60;;;14.10;99.90;;;;;;5072049;28;20199;-86
2023/09/01 03:49:00;;;;;;;2.90;2.30;;;14.10;99.90;;;;;;5071723;28;20200;-85
2023/09/01 03:51:26;;;;;;;2.63;2.43;;;14.10;99.90;;;;;;5063242;28;20556;-85
2023/09/01 03:53:51;;;;;;;3.60;2.47;;;14.10;99.90;;;;;;5057549;28;20226;-85
2023/09/01 03:56:18;;;;;;;4.43;2.50;;;14.10;99.90;;;;;;5051787;28;20180;-85
2023/09/01 03:58:44;;;;;;;3.10;2.07;;;14.10;99.90;;;;;;5051845;28;20170;-85
2023/09/01 04:01:13;;;;;;;3.87;2.40;;;14.00;99.90;;;;;;5067651;28;20192;-83
2023/09/01 04:03:43;;;;;;;3.23;2.40;;;14.00;99.90;;;;;;5060452;28;20593;-83
2023/09/01 04:06:09;;;;;;;2.73;2.30;;;13.90;99.90;;;;;;5053485;28;20174;-83
2023/09/01 04:08:35;;;;;;;4.57;2.37;;;13.90;99.90;;;;;;5051957;28;20553;-83
2023/09/01 04:11:03;;;;;;;3.10;2.40;;;13.90;99.90;;;;;;5052803;28;20224;-83
2023/09/01 04:13:29;;;;;;;4.07;2.50;;;13.90;99.90;;;;;;5053112;28;20272;-83
2023/09/01 04:15:55;;;;;;;3.47;2.33;;;13.90;99.90;;;;;;5051823;28;20335;-83
2023/09/01 04:18:22;;;;;;;3.43;2.50;;;13.90;99.90;;;;;;5053002;28;20185;-82
2023/09/01 04:20:48;;;;;;;4.20;2.40;;;13.90;99.90;;;;;;5065005;28;20187;-83
2023/09/01 04:23:14;;;;;;;3.33;2.37;;;13.90;99.90;;;;;;5071505;28;20300;-82
2023/09/01 04:25:40;;;;;;;3.63;2.30;;;13.90;99.90;;;;;;5071754;28;20260;-83
2023/09/01 04:28:06;;;;;;;2.60;2.40;;;13.90;99.90;;;;;;5073230;28;20199;-82
2023/09/01 04:30:31;;;;;;;2.60;2.40;;;13.90;99.90;;;;;;5070162;28;20235;-83
2023/09/01 04:32:57;;;;;;;2.73;2.23;;;13.90;99.90;;;;;;5056536;28;20177;-83
2023/09/01 04:35:22;;;;;;;3.23;2.47;;;13.90;99.90;;;;;;5051349;28;20185;-83
2023/09/01 04:37:48;;;;;;;4.40;2.37;;;13.90;99.90;;;;;;5051719;28;20220;-83
2023/09/01 04:40:13;;;;;;;3.10;2.37;;;14.00;99.90;;;;;;5060090;28;20223;-83
2023/09/01 04:42:39;;;;;;;3.37;2.50;;;14.00;99.90;;;;;;5072133;28;20280;-82
2023/09/01 04:45:05;;;;;;;4.80;2.60;;;13.90;99.90;;;;;;5073387;28;20201;-82
2023/09/01 04:47:30;;;;;;;3.37;2.60;;;14.00;99.90;;;;;;5073854;28;20662;-81
2023/09/01 04:49:56;;;;;;;3.37;2.40;;;14.00;99.90;;;;;;5067512;28;20181;-82
2023/09/01 04:52:22;;;;;;;3.87;2.47;;;14.00;99.90;;;;;;5051727;28;20170;-83
2023/09/01 04:54:48;;;;;;;6.03;2.73;;;14.00;99.90;;;;;;5051751;28;20189;-82
2023/09/01 04:57:14;;;;;;;5.30;2.77;;;14.00;99.90;;;;;;5051882;28;20172;-82
2023/09/01 04:59:39;;;;;;;6.70;2.70;;;14.10;99.90;;;;;;5070578;28;20169;-81
2023/09/01 05:02:06;;;;;;;3.17;2.53;;;14.10;99.90;;;;;;5071752;28;20165;-81
2023/09/01 05:04:31;;;;;;;2.77;2.30;;;14.20;99.90;;;;;;5071687;28;20204;-82
2023/09/01 05:06:57;;;;;;;5.53;2.50;;;14.10;99.90;;;;;;5071790;28;20548;-82
2023/09/01 05:09:23;;;;;;;4.63;2.90;;;14.20;99.90;;;;;;5073135;28;20165;-80
2023/09/01 05:11:48;;;;;;;3.77;2.60;;;14.20;99.90;;;;;;5052695;28;20219;-83
2023/09/01 05:14:14;;;;;;;4.03;2.70;;;14.20;99.90;;;;;;5054697;28;20582;-82
2023/09/01 05:16:40;;;;;;;4.37;2.80;;;14.20;99.90;;;;;;5055765;28;20174;-82
2023/09/01 05:19:05;;;;;;;3.03;2.70;;;14.20;99.90;;;;;;5055334;28;20177;-82
2023/09/01 05:21:31;;;;;;;5.27;2.67;;;14.20;99.90;;;;;;5073701;28;20185;-83
2023/09/01 05:23:56;;;;;;;3.87;2.60;;;14.20;99.90;;;;;;5077371;28;20212;-81
2023/09/01 05:26:22;;;;;;;4.50;2.70;;;14.20;99.90;;;;;;5077808;28;20184;-81
2023/09/01 05:28:47;;;;;;;3.63;3.07;;;14.20;99.90;;;;;;5076196;28;20206;-82
2023/09/01 05:31:13;;;;;;;5.70;3.03;;;14.20;99.90;;;;;;5071173;28;20177;-82
2023/09/01 05:33:39;;;;;;;4.13;2.53;;;14.20;99.90;;;;;;5076956;28;20685;-82
2023/09/01 05:36:04;;;;;;;3.20;2.90;;;14.20;99.90;;;;;;5076645;28;20666;-82
2023/09/01 05:38:30;;;;;;;4.03;2.83;;;14.20;99.90;;;;;;5076790;28;20180;-82
2023/09/01 05:40:57;;;;;;;6.30;3.10;;;14.20;99.90;;;;;;5062696;28;20265;-83
2023/09/01 05:43:23;;;;;;;4.10;3.00;;;14.20;99.90;;;;;;5056966;28;20272;-82
2023/09/01 05:45:49;;;;;;;3.20;2.90;;;14.30;99.90;;;;;;5054880;28;20189;-78
2023/09/01 05:48:14;;;;;;;4.57;2.90;;;14.40;99.90;;;;;;5063940;28;20578;-84
2023/09/01 05:50:42;;;;;;;3.57;2.80;;;14.40;99.90;;;;;;5073578;28;20226;-83
2023/09/01 05:53:08;;;;;;;3.57;2.80;;;14.40;99.90;;;;;;5074326;28;20177;-83
2023/09/01 05:55:34;;;;;;;5.27;3.00;;;14.40;99.90;;;;;;5075636;28;20172;-84
2023/09/01 05:57:59;;;;;;;4.50;2.90;;;14.40;99.90;;;;;;5074111;28;20173;-85
2023/09/01 06:00:25;;;;;;;3.43;2.60;;;14.50;99.90;;;;;;5074547;28;20550;-83
2023/09/01 06:02:52;;;;;;;5.03;2.90;;;14.50;99.90;;;;;;5075664;28;20196;-83
2023/09/01 06:05:18;;;;;;;5.50;3.00;;;14.60;99.90;;;;;;5074244;28;20181;-81
2023/09/01 06:07:43;;;;;;;3.90;3.00;;;14.60;99.90;;;;;;5075094;28;20223;-81
2023/09/01 06:10:09;;;;;;;4.23;2.53;;;14.60;99.90;;;;;;5071052;28;20586;-81
2023/09/01 06:12:35;;;;;;;6.37;3.07;;;14.70;99.90;;;;;;5054506;28;20181;-83
2023/09/01 06:15:00;;;;;;;4.23;2.60;;;14.80;99.90;;;;;;5055727;28;20730;-82
2023/09/01 06:17:26;;;;;;;2.73;2.50;;;14.80;99.90;;;;;;5055851;28;20178;-83
2023/09/01 06:19:51;;;;;;;4.27;2.80;;;14.80;99.90;;;;;;5056156;28;20196;-85
2023/09/01 06:22:17;;;;;;;3.70;2.63;;;14.90;99.90;;;;;;5074270;28;20173;-82
2023/09/01 06:24:42;;;;;;;2.97;2.70;;;14.90;99.90;;;;;;5072698;28;20280;-82
2023/09/01 06:27:08;;;;;;;3.07;2.30;;;15.00;99.90;;;;;;5075356;28;20260;-81
2023/09/01 06:29:33;;;;;;;2.50;2.30;;;15.00;99.90;;;;;;5073903;28;20173;-82
2023/09/01 06:31:59;;;;;;;2.77;2.50;;;15.10;99.90;;;;;;5072560;28;20187;-82
2023/09/01 06:34:25;;;;;;;2.87;2.40;;;15.00;99.90;;;;;;5074831;28;20205;-82
2023/09/01 06:36:50;;;;;;;3.07;2.20;;;15.00;99.90;;;;;;5073698;28;20378;-82
2023/09/01 06:39:18;;;;;;;2.30;2.07;;;15.00;99.90;;;;;;5074962;28;20179;-82
2023/09/01 06:41:45;;;;;;;2.00;1.80;;;15.10;99.90;;;;;;5073936;28;20576;-81
2023/09/01 06:44:11;;;;;;;2.23;1.30;;;15.20;99.90;;;;;;5073403;28;20733;-82
2023/09/01 06:46:36;;;;;;;1.50;1.40;;;15.10;99.90;;;;;;5073630;28;20192;-82
2023/09/01 06:49:02;;;;;;;1.40;1.30;;;15.10;99.90;;;;;;5073719;28;20199;-81
2023/09/01 06:51:29;;;;;;;1.60;1.20;;;15.10;99.90;;;;;;5059537;28;20201;-81
2023/09/01 06:53:54;;;;;;;1.97;1.40;;;15.10;99.90;;;;;;5053576;28;20205;-80
2023/09/01 06:56:20;;;;;;;1.30;1.20;;;15.20;99.90;;;;;;5054777;28;20173;-80
2023/09/01 06:58:46;;;;;;;1.10;1.10;;;15.20;99.90;;;;;;5054401;28;20173;-81
2023/09/01 07:01:12;;;;;;;0.93;0.93;;;15.10;99.90;;;;;;5065835;28;20280;-81
2023/09/01 07:03:38;;;;;;;1.13;1.03;;;15.10;99.90;;;;;;5068390;28;20205;-81
2023/09/01 07:06:04;;;;;;;1.00;1.00;;;15.20;99.90;;;;;;5054217;28;20216;-81
2023/09/01 07:08:30;;;;;;;1.10;1.00;;;15.20;99.90;;;;;;5053278;28;20170;-81
2023/09/01 07:11:09;;;;;;;0.90;0.90;;;15.20;99.90;;;;;;5061935;28;20180;-81
2023/09/01 07:13:35;;;;;;;1.30;1.00;;;15.20;99.90;;;;;;5073918;28;20327;-81
2023/09/01 07:16:00;;;;;;;1.57;1.00;;;15.20;99.90;;;;;;5073132;28;20256;-82
2023/09/01 07:18:26;;;;;;;1.10;1.00;;;15.10;99.90;;;;;;5074120;28;20538;-79
2023/09/01 07:20:58;;;;;;;1.17;1.07;;;15.10;99.90;;;;;;5071864;28;20219;-79
2023/09/01 07:23:23;;;;;;;1.30;1.20;;;15.10;99.90;;;;;;5055160;28;20208;-79
2023/09/01 07:25:49;;;;;;;0.90;0.90;;;15.10;99.90;;;;;;5054095;28;20170;-84
2023/09/01 07:28:15;;;;;;;1.17;1.07;;;15.10;99.90;;;;;;5052809;28;20261;-81
2023/09/01 07:30:40;;;;;;;1.43;0.90;;;15.10;99.90;;;;;;5060262;28;20192;-80
2023/09/01 07:33:06;;;;;;;1.40;1.10;;;15.20;99.90;;;;;;5073896;28;20188;-79
2023/09/01 07:35:31;;;;;;;0.97;0.90;;;15.20;99.90;;;;;;5073204;28;20181;-77
2023/09/01 07:37:57;;;;;;;1.27;1.00;;;15.20;99.90;;;;;;5071966;28;20177;-82
2023/09/01 07:40:23;;;;;;;1.17;1.00;;;15.10;99.90;;;;;;5053640;28;20268;-81
2023/09/01 07:42:49;;;;;;;0.80;0.80;;;15.20;99.90;;;;;;5066035;28;20207;-81
2023/09/01 07:45:15;;;;;;;1.07;0.70;;;15.30;99.90;;;;;;5071495;28;20231;-82
2023/09/01 07:47:42;;;;;;;0.60;0.60;;;15.30;99.90;;;;;;5073736;28;20177;-82
2023/09/01 07:50:09;;;;;;;0.60;0.60;;;15.20;99.90;;;;;;5071696;28;20667;-84
2023/09/01 07:52:35;;;;;;;0.60;0.60;;;15.20;99.90;;;;;;5072139;28;20169;-84
2023/09/01 07:55:00;;;;;;;0.70;0.70;;;15.20;99.90;;;;;;5071720;28;20197;-83
2023/09/01 07:57:26;;;;;;;0.70;0.70;;;15.20;99.90;;;;;;5073285;28;20176;-84
2023/09/01 07:59:51;;;;;;;0.80;0.80;;;15.30;99.90;;;;;;5071988;28;20170;-82
2023/09/01 08:02:17;;;;;;;0.70;0.70;;;15.30;99.90;;;;;;5062970;28;20185;-82
2023/09/01 08:04:43;;;;;;;0.70;0.70;;;15.40;99.90;;;;;;5053378;28;20266;-83
2023/09/01 08:07:09;;;;;;;0.80;0.70;;;15.50;99.90;;;;;;5051626;28;20264;-84
2023/09/01 08:09:34;;;;;;;0.70;0.70;;;15.60;99.90;;;;;;5056831;28;20306;-84
2023/09/01 08:12:00;;;;;;;0.70;0.70;;;15.70;99.90;;;;;;5072821;28;20180;-83
2023/09/01 08:14:27;;;;;;;1.10;0.80;;;15.80;99.90;;;;;;5073037;28;20312;-84
2023/09/01 08:16:52;;;;;;;0.80;0.70;;;15.80;99.90;;;;;;5071615;28;20208;-84
2023/09/01 08:19:18;;;;;;;0.60;0.60;;;15.80;99.90;;;;;;5072220;28;20230;-83
2023/09/01 08:21:43;;;;;;;0.73;0.73;;;15.70;99.90;;;;;;5071966;28;20553;-83
2023/09/01 08:24:09;;;;;;;0.70;0.70;;;15.70;99.90;;;;;;5072562;28;20701;-83
2023/09/01 08:26:35;;;;;;;0.60;0.60;;;15.70;99.90;;;;;;5071515;28;20165;-82
2023/09/01 08:29:03;;;;;;;0.93;0.63;;;15.70;99.90;;;;;;5073254;28;20165;-82
2023/09/01 08:31:29;;;;;;;0.70;0.70;;;15.80;99.90;;;;;;5071929;28;20233;-82
2023/09/01 08:33:55;;;;;;;0.60;0.60;;;15.90;99.90;;;;;;5071583;28;20216;-81
2023/09/01 08:36:21;;;;;;;0.93;0.73;;;16.00;99.90;;;;;;5073905;28;20165;-81
2023/09/01 08:38:47;;;;;;;0.60;0.60;;;16.00;99.90;;;;;;5070304;28;20181;-81
2023/09/01 08:41:12;;;;;;;0.70;0.70;;;16.00;99.90;;;;;;5052323;28;20173;-81
2023/09/01 08:43:38;;;;;;;0.60;0.60;;;16.00;99.90;;;;;;5054451;28;20208;-80
2023/09/01 08:46:05;;;;;;;0.60;0.60;;;16.00;99.90;;;;;;5052860;28;20166;-80
2023/09/01 08:48:32;;;;;;;0.73;0.70;;;16.00;99.90;;;;;;5056089;28;20543;-79
2023/09/01 08:50:57;;;;;;;1.40;0.80;;;16.00;99.90;;;;;;5072009;28;20557;-81
2023/09/01 08:53:24;;;;;;;0.90;0.90;;;15.90;99.90;;;;;;5072382;28;20291;-80
2023/09/01 08:55:51;;;;;;;0.80;0.80;;;16.00;99.90;;;;;;5073960;28;20184;-81
2023/09/01 08:58:19;;;;;;;0.73;0.73;;;16.00;99.90;;;;;;5071747;28;20662;-81
2023/09/01 09:00:45;;;;;;;0.80;0.80;;;16.00;99.90;;;;;;5058574;28;20265;-81
2023/09/01 09:03:16;;;;;;;1.23;0.80;;;16.00;99.90;;;;;;5051186;28;20240;-81
2023/09/01 09:05:44;;;;;;;0.80;0.80;;;15.90;99.90;;;;;;5053006;28;20256;-82
2023/09/01 09:08:09;;;;;;;1.37;0.80;;;15.90;99.90;;;;;;5051884;28;20223;-82
2023/09/01 09:10:43;;;;;;;1.00;0.90;;;15.80;99.90;;;;;;5058843;28;20173;-81
2023/09/01 09:13:26;;;;;;;2.10;1.00;;;15.80;99.90;;;;;;5051250;28;20173;-81
2023/09/01 09:16:04;;;;;;;1.20;1.10;;;15.80;99.90;;;;;;5052723;28;20197;-79
2023/09/01 09:18:30;;;;;;;1.10;1.00;;;15.70;99.90;;;;;;5069055;28;20176;-82
2023/09/01 09:20:55;;;;;;;1.07;0.80;;;15.70;99.90;;;;;;5071281;28;20180;-81
2023/09/01 09:23:21;;;;;;;0.90;0.90;;;15.70;99.90;;;;;;5071622;28;20200;-82
2023/09/01 09:25:49;;;;;;;0.90;0.90;;;15.80;99.90;;;;;;5071481;28;20226;-81
2023/09/01 09:28:16;;;;;;;1.10;1.00;;;15.70;99.90;;;;;;5072758;28;20225;-82
2023/09/01 09:30:52;;;;;;;1.10;0.90;;;15.70;99.90;;;;;;5070676;28;20205;-82
2023/09/01 09:33:28;;;;;;;1.07;1.00;;;15.80;99.90;;;;;;5072591;28;20575;-84
2023/09/01 09:35:54;;;;;;;1.07;1.00;;;15.80;99.90;;;;;;5071048;28;20647;-82
2023/09/01 09:38:19;;;;;;;1.20;1.10;;;15.80;99.90;;;;;;5071023;28;20184;-83
2023/09/01 09:41:03;;;;;;;1.13;1.03;;;15.80;99.90;;;;;;5052289;28;20585;-82
2023/09/01 09:43:41;;;;;;;1.10;1.00;;;15.80;99.90;;;;;;5051637;28;20216;-83
2023/09/01 09:46:07;;;;;;;1.50;1.10;;;15.80;99.90;;;;;;5051045;28;20177;-81
2023/09/01 09:48:33;;;;;;;1.33;1.00;;;15.80;99.90;;;;;;5070576;28;20608;-81
2023/09/01 09:51:00;;;;;;;1.30;1.00;;;15.90;99.90;;;;;;5064405;28;20169;-82
2023/09/01 09:53:29;;;;;;;1.70;1.30;;;15.90;99.90;;;;;;5051663;28;20204;-81
2023/09/01 09:55:58;;;;;;;1.40;1.10;;;15.90;99.90;;;;;;5051921;28;20170;-81
2023/09/01 09:58:35;;;;;;;1.90;1.20;;;15.90;99.90;;;;;;5052766;28;20188;-80
2023/09/01 10:01:13;;;;;;;1.20;1.10;;;16.00;99.90;;;;;;5074294;28;20176;-80
2023/09/01 10:03:39;;;;;;;1.50;1.30;;;16.00;99.90;;;;;;5078195;28;20208;-80
2023/09/01 10:06:05;;;;;;;1.30;1.20;;;16.00;99.90;;;;;;5078729;28;20230;-80
2023/09/01 10:08:32;;;;;;;1.40;1.30;;;16.10;99.90;;;;;;5073557;28;20177;-80
2023/09/01 10:11:01;;;;;;;1.37;1.27;;;16.10;99.90;;;;;;5055169;28;20176;-80
2023/09/01 10:13:28;;;;;;;1.60;1.20;;;16.10;99.90;;;;;;5054118;28;20193;-80
2023/09/01 10:15:55;;;;;;;1.73;1.40;;;16.20;99.90;;;;;;5054466;28;20201;-80
2023/09/01 10:18:21;;;;;;;9.10;4.43;;;16.20;99.90;;;;;;5057072;28;20205;-79
2023/09/01 10:20:47;;;;;;;4.33;2.33;;;16.50;99.90;;;;;;5074728;28;20173;-79
2023/09/01 10:23:13;;;;;;;1.40;1.30;;;16.50;99.90;;;;;;5075880;28;20231;-81
2023/09/01 10:25:39;;;;;;;16.47;6.13;;;16.50;99.90;;;;;;5073744;28;20173;-79
2023/09/01 10:28:10;;;;;;;6.83;3.10;;;16.60;99.90;;;;;;5073929;28;20173;-77
2023/09/01 10:30:44;;;;;;;1.30;1.20;;;16.60;99.90;;;;;;5072726;28;20201;-77
2023/09/01 10:33:11;;;;;;;1.80;1.20;;;16.50;99.90;;;;;;5073625;28;20161;-77
2023/09/01 10:35:42;;;;;;;4.20;2.53;;;16.60;99.90;;;;;;5073397;28;20169;-78
2023/09/01 10:38:18;;;;;;;1.20;1.10;;;16.60;99.90;;;;;;5074524;28;20169;-77
2023/09/01 10:40:48;;;;;;;6.20;3.27;;;16.70;99.90;;;;;;5052793;28;20170;-78
2023/09/01 10:43:44;;;;;;;1.57;1.10;;;16.80;99.90;;;;;;5054845;28;20251;-79
2023/09/01 10:46:14;;;;;;;1.87;1.10;;;16.70;99.90;;;;;;5054863;28;20174;-79
2023/09/01 10:49:04;;;;;;;1.50;1.10;;;16.70;99.90;;;;;;5056877;28;20169;-80
2023/09/01 10:51:37;;;;;;;1.03;1.00;;;16.70;99.90;;;;;;5072653;28;20246;-82
2023/09/01 10:54:22;;;;;;;1.40;1.30;;;16.70;99.90;;;;;;5074846;28;20283;-81
2023/09/01 10:56:59;;;;;;;1.10;1.00;;;16.80;99.90;;;;;;5074443;28;20180;-80
2023/09/01 10:59:32;;;;;;;1.10;1.00;;;16.80;99.90;;;;;;5074316;28;20177;-80
2023/09/01 11:02:24;;;;;;;2.47;1.47;;;16.70;99.90;;;;;;5072763;28;20184;-81
2023/09/01 11:04:49;;;;;;;1.97;1.30;;;16.80;99.90;;;;;;5073005;28;20296;-79
2023/09/01 11:07:16;;;;;;;2.77;1.30;;;16.90;99.90;;;;;;5074731;28;20193;-81
2023/09/01 11:09:44;;;;;;;0.80;0.80;;;16.90;99.90;;;;;;5073691;28;20181;-78
2023/09/01 11:12:12;;;;;;;0.80;0.80;;;17.00;99.90;;;;;;5073464;28;20169;-80
2023/09/01 11:14:55;;;;;;;0.87;0.87;;;16.90;99.90;;;;;;5072608;28;20245;-81
2023/09/01 11:17:40;;;;;;;0.90;0.90;;;16.90;99.90;;;;;;5074362;28;20180;-82
2023/09/01 11:20:09;;;;;;;2.00;1.07;;;16.90;99.90;;;;;;5064362;28;20188;-83
2023/09/01 11:22:37;;;;;;;0.97;0.90;;;16.90;99.90;;;;;;5071866;28;20715;-82
2023/09/01 11:25:03;;;;;;;1.87;1.00;;;16.90;99.90;;;;;;5060389;28;20205;-82
2023/09/01 11:27:29;;;;;;;1.00;0.90;;;16.90;99.90;;;;;;5053955;28;20636;-83
2023/09/01 11:29:54;;;;;;;0.87;0.80;;;16.80;99.90;;;;;;5066863;28;20185;-82
2023/09/01 11:32:27;;;;;;;0.80;0.80;;;16.80;99.90;;;;;;5063327;28;20218;-83
2023/09/01 11:34:53;;;;;;;1.17;0.83;;;16.80;99.90;;;;;;5053289;28;20206;-81
2023/09/01 11:37:37;;;;;;;0.87;0.80;;;16.80;99.90;;;;;;5053817;28;20700;-83
2023/09/01 11:40:05;;;;;;;0.73;0.73;;;16.80;99.90;;;;;;5055355;28;20269;-83
2023/09/01 11:42:33;;;;;;;1.10;0.90;;;16.80;99.90;;;;;;5052324;28;20196;-83
2023/09/01 11:45:01;;;;;;;2.40;1.00;;;16.80;99.90;;;;;;5062192;28;20675;-83
2023/09/01 11:47:27;;;;;;;0.93;0.83;;;16.90;99.90;;;;;;5072355;28;20243;-83
2023/09/01 11:49:53;;;;;;;0.80;0.80;;;16.90;99.90;;;;;;5071511;28;20267;-82
2023/09/01 11:52:18;;;;;;;0.80;0.80;;;17.00;99.90;;;;;;5073627;28;20644;-83
2023/09/01 11:54:44;;;;;;;0.93;0.80;;;17.20;99.90;;;;;;5057792;28;20200;-82
2023/09/01 11:57:13;;;;;;;0.80;0.70;;;17.30;99.90;;;;;;5063151;28;20654;-82
2023/09/01 11:59:48;;;;;;;0.83;0.83;;;17.40;99.90;;;;;;5068356;28;20185;-82
2023/09/01 12:02:15;;;;;;;0.87;0.80;;;17.60;99.90;;;;;;5058044;28;20180;-83
2023/09/01 12:04:45;;;;;;;1.00;0.90;;;17.70;99.90;;;;;;5069107;28;20338;-83
2023/09/01 12:07:30;;;;;;;0.83;0.83;;;17.80;99.90;;;;;;5073252;28;20169;-81
2023/09/01 12:09:56;;;;;;;0.73;0.70;;;17.90;99.90;;;;;;5071005;28;20177;-82
2023/09/01 12:12:22;;;;;;;0.93;0.80;;;17.90;99.90;;;;;;5073679;28;20258;-82
2023/09/01 12:14:48;;;;;;;0.90;0.90;;;17.80;99.90;;;;;;5073450;28;20197;-83
2023/09/01 12:17:19;;;;;;;1.20;1.00;;;17.90;99.90;;;;;;5062609;28;20231;-83
2023/09/01 12:19:50;;;;;;;0.80;0.80;;;17.90;99.90;;;;;;5056452;28;20177;-82
2023/09/01 12:22:20;;;;;;;1.47;1.20;;;17.90;99.90;;;;;;5069221;28;20176;-82
2023/09/01 12:24:56;;;;;;;1.00;1.00;;;18.00;99.90;;;;;;5071235;28;20205;-83
2023/09/01 12:27:22;;;;;;;1.10;1.00;;;18.00;99.90;;;;;;5073203;28;20195;-82
2023/09/01 12:29:48;;;;;;;1.30;1.20;;;17.90;99.90;;;;;;5071224;28;20179;-83
2023/09/01 12:32:14;;;;;;;1.20;1.10;;;17.90;99.90;;;;;;5054395;28;20174;-82
2023/09/01 12:34:41;;;;;;;1.70;1.13;;;18.00;99.90;;;;;;5051373;28;20212;-82
2023/09/01 12:37:07;;;;;;;1.07;1.07;;;17.90;99.90;;;;;;5051724;28;20178;-83
2023/09/01 12:39:33;;;;;;;1.07;1.00;;;17.90;99.90;;;;;;5057971;28;20210;-83
2023/09/01 12:41:59;;;;;;;1.33;1.07;;;17.90;99.90;;;;;;5071810;28;20627;-82
2023/09/01 12:44:27;;;;;;;1.20;1.10;;;17.90;99.90;;;;;;5070855;28;20303;-82
2023/09/01 12:46:54;;;;;;;1.50;1.10;;;17.90;99.90;;;;;;5071779;28;20169;-82
2023/09/01 12:49:19;;;;;;;1.30;1.20;;;17.90;99.90;;;;;;5072745;28;20260;-82
2023/09/01 12:51:45;;;;;;;2.17;1.10;;;17.90;99.90;;;;;;5071355;28;20306;-85